Time;durP1;ratioP1;P1;durP2;ratioP2;P2;SDS_P1;SDS_P2;PMS_P1;PMS_P2;Temp;Humidity;BMP_temperature;BMP_pressure;BME280_temperature;BME280_humidity;BME280_pressure;Samples;Min_cycle;Max_cycle;Signal;HPM_P1;HPM_P2
2023/12/04 00:01:18;;;;;;;25.13;14.55;;;;;;;-3.46;71.71;96846.75;4855300;29;20219;-84
2023/12/04 00:03:46;;;;;;;24.98;14.43;;;;;;;-3.48;71.95;96848.56;4854768;29;20086;-82
2023/12/04 00:06:14;;;;;;;24.23;13.95;;;;;;;-3.52;71.94;96842.00;4854475;29;20053;-85
2023/12/04 00:08:42;;;;;;;24.13;13.50;;;;;;;-3.55;72.00;96844.75;4854108;29;20050;-82
2023/12/04 00:11:10;;;;;;;21.55;12.93;;;;;;;-3.56;72.14;96843.94;4852809;29;20065;-83
2023/12/04 00:13:37;;;;;;;23.35;12.75;;;;;;;-3.53;72.33;96835.28;4853323;29;20054;-81
2023/12/04 00:16:07;;;;;;;26.63;15.20;;;;;;;-3.54;72.66;96826.81;4854213;29;20054;-85
2023/12/04 00:18:35;;;;;;;26.23;14.65;;;;;;;-3.49;73.52;96824.00;4854390;29;20050;-82
2023/12/04 00:21:03;;;;;;;25.45;14.30;;;;;;;-3.45;73.93;96811.91;4852176;29;20081;-84
2023/12/04 00:23:31;;;;;;;26.70;14.73;;;;;;;-3.38;74.25;96803.78;4859693;29;20046;-84
2023/12/04 00:25:59;;;;;;;23.50;14.98;;;;;;;-3.33;74.13;96806.88;4861069;29;20134;-85
2023/12/04 00:28:28;;;;;;;20.50;13.65;;;;;;;-3.28;74.63;96795.56;4861140;29;20066;-81
2023/12/04 00:30:56;;;;;;;19.48;11.90;;;;;;;-3.23;74.03;96804.59;4853284;29;20046;-82
2023/12/04 00:33:25;;;;;;;23.15;13.13;;;;;;;-3.21;73.49;96796.88;4853775;29;20480;-83
2023/12/04 00:35:53;;;;;;;19.42;11.23;;;;;;;-3.19;73.14;96792.47;4852280;29;20177;-81
2023/12/04 00:38:20;;;;;;;20.33;12.00;;;;;;;-3.21;72.33;96777.28;4850709;29;20082;-83
2023/12/04 00:40:48;;;;;;;20.48;11.52;;;;;;;-3.22;73.08;96782.47;4850720;29;20053;-81
2023/12/04 00:43:16;;;;;;;16.67;11.25;;;;;;;-3.21;72.53;96773.91;4851058;29;20060;-83
2023/12/04 00:45:43;;;;;;;18.75;11.35;;;;;;;-3.23;72.06;96778.28;4852630;29;20107;-82
2023/12/04 00:48:11;;;;;;;20.15;11.55;;;;;;;-3.25;71.73;96769.91;4851899;29;20489;-81
2023/12/04 00:50:40;;;;;;;20.80;12.45;;;;;;;-3.25;72.23;96772.44;4851224;29;20083;-81
2023/12/04 00:53:07;;;;;;;18.33;11.27;;;;;;;-3.25;72.12;96769.91;4852742;29;20066;-82
2023/12/04 00:55:35;;;;;;;17.33;10.10;;;;;;;-3.29;71.24;96763.34;4853695;29;20054;-82
2023/12/04 00:58:03;;;;;;;20.80;11.00;;;;;;;-3.30;71.74;96767.63;4853413;29;20123;-81
2023/12/04 01:00:30;;;;;;;19.55;10.95;;;;;;;-3.29;71.98;96768.44;4852283;29;20356;-82
2023/12/04 01:02:58;;;;;;;17.63;10.63;;;;;;;-3.29;71.59;96758.22;4852465;29;20050;-83
2023/12/04 01:05:26;;;;;;;19.90;11.45;;;;;;;-3.31;71.89;96759.13;4853063;29;20058;-83
2023/12/04 01:07:55;;;;;;;18.30;10.02;;;;;;;-3.34;71.24;96761.06;4854405;29;20085;-82
2023/12/04 01:10:23;;;;;;;19.52;11.85;;;;;;;-3.36;71.25;96767.97;4854021;29;20053;-80
2023/12/04 01:12:51;;;;;;;17.38;10.63;;;;;;;-3.40;70.90;96767.34;4852803;29;20081;-81
2023/12/04 01:15:19;;;;;;;20.23;11.77;;;;;;;-3.44;71.18;96760.78;4851863;29;20077;-84
2023/12/04 01:17:47;;;;;;;19.20;11.93;;;;;;;-3.43;71.74;96764.13;4852646;29;20073;-84
2023/12/04 01:20:15;;;;;;;18.85;10.75;;;;;;;-3.46;71.89;96765.16;4853311;29;20125;-85
2023/12/04 01:22:42;;;;;;;17.38;10.80;;;;;;;-3.48;71.91;96763.59;4852210;29;20050;-83
2023/12/04 01:25:11;;;;;;;18.88;11.82;;;;;;;-3.50;71.67;96761.13;4851761;29;20114;-83
2023/12/04 01:27:39;;;;;;;17.17;11.20;;;;;;;-3.50;72.28;96750.94;4851506;29;20049;-81
2023/12/04 01:30:08;;;;;;;21.30;12.63;;;;;;;-3.48;72.11;96749.13;4852753;29;20056;-80
2023/12/04 01:32:36;;;;;;;19.17;11.00;;;;;;;-3.49;71.47;96754.31;4852229;29;20102;-83
2023/12/04 01:35:06;;;;;;;16.75;10.73;;;;;;;-3.57;71.25;96752.22;4851898;29;20401;-83
2023/12/04 01:37:33;;;;;;;20.38;12.48;;;;;;;-3.59;72.15;96743.84;4852539;29;20114;-82
2023/12/04 01:40:01;;;;;;;19.15;11.65;;;;;;;-3.58;72.07;96748.84;4853100;29;20540;-83
2023/12/04 01:42:30;;;;;;;18.83;12.38;;;;;;;-3.64;71.22;96740.75;4852667;29;20069;-86
2023/12/04 01:44:58;;;;;;;20.23;12.57;;;;;;;-3.70;71.33;96736.00;4852679;29;20083;-80
2023/12/04 01:47:26;;;;;;;19.95;11.50;;;;;;;-3.77;71.50;96733.81;4852544;29;20054;-82
2023/12/04 01:49:54;;;;;;;21.95;11.93;;;;;;;-3.80;71.62;96736.56;4851614;29;20053;-84
2023/12/04 01:52:22;;;;;;;20.40;11.80;;;;;;;-3.85;70.51;96738.53;4851653;29;20083;-83
2023/12/04 01:54:51;;;;;;;18.00;11.35;;;;;;;-3.88;70.99;96733.63;4853665;29;20084;-83
2023/12/04 01:57:19;;;;;;;17.15;11.70;;;;;;;-3.94;70.79;96731.44;4852985;29;20552;-83
2023/12/04 01:59:49;;;;;;;19.58;12.15;;;;;;;-4.00;70.77;96736.88;4853126;29;20516;-82
2023/12/04 02:02:16;;;;;;;22.10;12.88;;;;;;;-4.03;72.09;96735.31;4853936;29;20106;-84
2023/12/04 02:04:44;;;;;;;19.88;11.55;;;;;;;-4.09;72.02;96717.84;4853509;29;20061;-82
2023/12/04 02:07:12;;;;;;;18.35;11.43;;;;;;;-4.16;71.47;96735.19;4851636;29;20078;-82
2023/12/04 02:09:40;;;;;;;17.85;12.00;;;;;;;-4.20;71.51;96723.56;4852000;29;20054;-83
2023/12/04 02:12:09;;;;;;;18.30;12.25;;;;;;;-4.22;71.77;96719.44;4851748;29;20058;-83
2023/12/04 02:14:36;;;;;;;20.95;12.38;;;;;;;-4.26;71.42;96715.47;4852745;29;20077;-84
2023/12/04 02:17:07;;;;;;;19.13;11.25;;;;;;;-4.30;71.33;96719.91;4852304;29;20061;-82
2023/12/04 02:19:35;;;;;;;21.45;11.77;;;;;;;-4.33;71.54;96720.06;4853025;29;20053;-86
2023/12/04 02:22:03;;;;;;;19.75;11.85;;;;;;;-4.32;71.90;96719.16;4852037;29;20049;-86
2023/12/04 02:24:34;;;;;;;18.05;11.40;;;;;;;-4.28;71.70;96722.38;4851651;29;20050;-84
2023/12/04 02:27:08;;;;;;;18.70;11.52;;;;;;;-4.27;71.98;96718.91;4852056;29;20057;-86
2023/12/04 02:29:40;;;;;;;20.33;12.13;;;;;;;-4.27;71.78;96714.63;4851573;29;20088;-85
2023/12/04 02:32:12;;;;;;;19.98;11.85;;;;;;;-4.25;71.87;96717.09;4852302;29;20058;-87
2023/12/04 02:34:41;;;;;;;17.83;10.65;;;;;;;-4.30;70.96;96714.81;4851878;29;20533;-85
2023/12/04 02:37:11;;;;;;;16.70;10.30;;;;;;;-4.38;70.90;96710.13;4852057;29;20126;-85
2023/12/04 02:39:41;;;;;;;22.77;12.50;;;;;;;-4.44;71.28;96702.88;4852364;29;20061;-86
2023/12/04 02:42:08;;;;;;;21.63;11.95;;;;;;;-4.49;71.04;96698.94;4852082;29;20054;-83
2023/12/04 02:44:36;;;;;;;19.42;11.90;;;;;;;-4.54;70.88;96698.38;4853237;29;20076;-87
2023/12/04 02:47:04;;;;;;;22.98;12.30;;;;;;;-4.58;71.35;96702.81;4851426;29;20141;-85
2023/12/04 02:49:31;;;;;;;20.67;11.95;;;;;;;-4.61;71.16;96703.81;4852370;29;20054;-83
2023/12/04 02:51:59;;;;;;;20.15;11.50;;;;;;;-4.66;70.52;96702.41;4852381;29;20054;-87
2023/12/04 02:54:27;;;;;;;20.35;11.95;;;;;;;-4.74;70.29;96700.31;4853085;29;20073;-86
2023/12/04 02:56:56;;;;;;;18.38;11.10;;;;;;;-4.80;70.68;96708.28;4855150;29;20050;-82
2023/12/04 02:59:24;;;;;;;20.65;11.95;;;;;;;-4.86;70.33;96699.25;4855926;29;20050;-85
2023/12/04 03:01:52;;;;;;;17.55;10.95;;;;;;;-4.93;70.45;96694.59;4855372;29;20085;-84
2023/12/04 03:04:20;;;;;;;20.67;12.38;;;;;;;-4.98;71.42;96697.38;4855943;29;20137;-88
2023/12/04 03:06:47;;;;;;;21.23;12.55;;;;;;;-5.01;71.07;96695.84;4855820;29;20065;-85
2023/12/04 03:09:15;;;;;;;23.30;13.13;;;;;;;-5.04;71.18;96698.53;4856720;29;20079;-84
2023/12/04 03:11:43;;;;;;;19.75;12.00;;;;;;;-5.08;70.82;96694.50;4857657;29;20058;-84
2023/12/04 03:14:12;;;;;;;21.20;12.32;;;;;;;-5.15;70.90;96695.75;4856505;29;20540;-86
2023/12/04 03:16:40;;;;;;;23.27;12.90;;;;;;;-5.19;71.34;96690.00;4856341;29;20069;-86
2023/12/04 03:19:07;;;;;;;21.63;12.00;;;;;;;-5.20;71.33;96688.38;4855394;29;20049;-88
2023/12/04 03:21:35;;;;;;;21.92;12.57;;;;;;;-5.24;70.86;96670.81;4855059;29;20052;-88
2023/12/04 03:24:03;;;;;;;23.17;12.65;;;;;;;-5.29;71.13;96673.59;4855333;29;20057;-84
2023/12/04 03:26:31;;;;;;;22.90;12.20;;;;;;;-5.34;71.18;96667.94;4856064;29;20110;-84
2023/12/04 03:28:58;;;;;;;22.75;13.70;;;;;;;-5.40;70.96;96660.63;4856554;29;20053;-84
2023/12/04 03:31:28;;;;;;;21.98;13.52;;;;;;;-5.49;71.19;96651.75;4857402;29;20085;-88
2023/12/04 03:33:55;;;;;;;24.48;13.75;;;;;;;-5.52;71.95;96648.59;4856901;29;20114;-85
2023/12/04 03:36:23;;;;;;;22.15;13.52;;;;;;;-5.55;71.99;96644.50;4856582;29;20569;-82
2023/12/04 03:38:51;;;;;;;23.77;14.13;;;;;;;-5.58;71.85;96642.09;4856596;29;20054;-83
2023/12/04 03:41:19;;;;;;;27.27;15.23;;;;;;;-5.61;71.79;96644.81;4857177;29;20074;-87
2023/12/04 03:43:46;;;;;;;22.75;12.38;;;;;;;-5.63;71.91;96644.06;4857083;29;20058;-88
2023/12/04 03:46:14;;;;;;;27.27;15.50;;;;;;;-5.67;72.46;96638.31;4857112;29;20061;-85
2023/12/04 03:48:44;;;;;;;27.13;16.73;;;;;;;-5.65;72.75;96643.31;4856914;29;20114;-88
2023/12/04 03:51:12;;;;;;;21.60;13.45;;;;;;;-5.66;71.96;96637.44;4856784;29;20504;-84
2023/12/04 03:53:40;;;;;;;24.50;13.55;;;;;;;-5.70;71.49;96637.69;4856347;29;20092;-84
2023/12/04 03:56:09;;;;;;;25.73;14.55;;;;;;;-5.75;71.31;96639.63;4855800;29;20057;-82
2023/12/04 03:58:37;;;;;;;25.02;14.88;;;;;;;-5.78;71.64;96627.91;4856579;29;20054;-84
2023/12/04 04:01:05;;;;;;;24.70;13.88;;;;;;;-5.80;71.33;96625.44;4855798;29;20058;-87
2023/12/04 04:03:33;;;;;;;23.35;14.65;;;;;;;-5.82;71.36;96624.69;4856862;29;20503;-86
2023/12/04 04:06:02;;;;;;;26.80;15.32;;;;;;;-5.85;71.67;96614.72;4855440;29;20069;-89
2023/12/04 04:08:30;;;;;;;25.83;14.55;;;;;;;-5.83;72.04;96619.72;4855896;29;20057;-88
2023/12/04 04:10:58;;;;;;;25.67;15.07;;;;;;;-5.82;71.95;96624.69;4857434;29;20083;-85
2023/12/04 04:13:25;;;;;;;28.05;16.48;;;;;;;-5.85;71.91;96619.78;4857129;29;20073;-82
2023/12/04 04:15:54;;;;;;;22.37;13.57;;;;;;;-5.89;72.05;96607.31;4857183;29;20053;-86
2023/12/04 04:18:21;;;;;;;24.90;14.15;;;;;;;-5.89;71.76;96605.59;4856650;29;20053;-84
2023/12/04 04:20:49;;;;;;;24.05;13.63;;;;;;;-5.91;72.14;96584.53;4857412;29;20401;-84
2023/12/04 04:23:18;;;;;;;24.63;12.95;;;;;;;-5.91;71.97;96592.16;4856463;29;20162;-89
2023/12/04 04:25:45;;;;;;;23.98;13.20;;;;;;;-5.91;72.02;96589.63;4857371;29;20054;-84
2023/12/04 04:28:13;;;;;;;29.13;14.90;;;;;;;-5.93;72.53;96573.63;4857135;29;20060;-87
2023/12/04 04:30:41;;;;;;;25.25;13.95;;;;;;;-5.93;72.32;96571.09;4855369;29;20057;-83
2023/12/04 04:33:09;;;;;;;22.90;13.85;;;;;;;-5.93;71.96;96572.81;4854416;29;20046;-88
2023/12/04 04:35:37;;;;;;;23.90;14.68;;;;;;;-5.91;72.93;96571.03;4856818;29;20078;-86
2023/12/04 04:38:05;;;;;;;28.42;15.95;;;;;;;-5.89;72.62;96562.41;4856811;29;20058;-86
2023/12/04 04:40:34;;;;;;;22.83;13.27;;;;;;;-5.89;71.85;96562.41;4856578;29;20056;-87
2023/12/04 04:43:01;;;;;;;28.83;15.30;;;;;;;-5.88;72.34;96564.06;4856487;29;20057;-89
2023/12/04 04:45:29;;;;;;;25.63;14.38;;;;;;;-5.88;71.81;96558.16;4855545;29;20052;-87
2023/12/04 04:47:57;;;;;;;25.15;13.80;;;;;;;-5.91;71.79;96554.06;4856547;29;20504;-86
2023/12/04 04:50:24;;;;;;;26.60;15.02;;;;;;;-5.95;71.21;96545.00;4857183;29;20049;-86
2023/12/04 04:52:52;;;;;;;25.52;14.68;;;;;;;-5.97;71.76;96548.53;4854650;29;20054;-83
2023/12/04 04:55:20;;;;;;;25.08;14.98;;;;;;;-5.93;72.46;96544.88;4853319;29;20061;-86
2023/12/04 04:58:09;;;;;;;27.40;15.07;;;;;;;-5.94;71.41;96551.69;4853933;29;20080;-87
2023/12/04 05:00:44;;;;;;;27.10;15.70;;;;;;;-5.99;71.54;96556.25;4855816;29;20058;-85
2023/12/04 05:03:11;;;;;;;24.65;13.82;;;;;;;-5.99;71.41;96556.25;4855702;29;20118;-86
2023/12/04 05:05:39;;;;;;;25.00;14.95;;;;;;;-5.99;71.82;96560.47;4856185;29;20433;-87
2023/12/04 05:08:07;;;;;;;26.30;14.88;;;;;;;-6.00;71.88;96564.75;4859190;29;20053;-83
2023/12/04 05:10:34;;;;;;;28.83;15.63;;;;;;;-5.98;72.60;96557.88;4870227;29;20091;-83
2023/12/04 05:13:02;;;;;;;31.38;17.20;;;;;;;-5.95;72.08;96556.88;4874250;29;20046;-86
2023/12/04 05:15:31;;;;;;;27.42;15.75;;;;;;;-5.95;71.92;96562.78;4874200;29;20057;-86
2023/12/04 05:17:59;;;;;;;26.37;15.33;;;;;;;-5.95;72.04;96557.69;4873195;29;20050;-85
2023/12/04 05:20:27;;;;;;;28.38;17.33;;;;;;;-5.99;71.61;96556.25;4855775;29;20061;-83
2023/12/04 05:22:54;;;;;;;28.67;16.10;;;;;;;-6.05;71.40;96552.28;4855934;29;20058;-86
2023/12/04 05:25:22;;;;;;;27.63;15.82;;;;;;;-6.08;71.60;96557.53;4873141;29;20073;-85
2023/12/04 05:27:53;;;;;;;29.27;15.07;;;;;;;-6.09;71.73;96560.16;4873975;29;20050;-88
2023/12/04 05:30:21;;;;;;;31.17;15.40;;;;;;;-6.11;71.44;96556.88;4857249;29;20054;-84
2023/12/04 05:32:50;;;;;;;33.95;17.42;;;;;;;-6.15;71.95;96561.28;4873348;29;20068;-79
2023/12/04 05:35:18;;;;;;;30.73;16.25;;;;;;;-6.16;71.62;96553.75;4873316;29;20584;-82
2023/12/04 05:37:46;;;;;;;33.85;16.92;;;;;;;-6.20;71.15;96555.63;4872936;29;20493;-88
2023/12/04 05:40:14;;;;;;;37.43;19.43;;;;;;;-6.24;71.05;96557.50;4853667;29;20053;-85
2023/12/04 05:42:42;;;;;;;32.92;16.85;;;;;;;-6.29;71.10;96544.25;4854252;29;20073;-84
2023/12/04 05:45:10;;;;;;;28.35;16.00;;;;;;;-6.29;71.74;96539.16;4858209;29;20074;-88
2023/12/04 05:47:38;;;;;;;25.08;14.52;;;;;;;-6.30;71.20;96532.44;4855321;29;20136;-83
2023/12/04 05:50:08;;;;;;;28.97;14.80;;;;;;;-6.31;71.26;96530.81;4868333;29;20057;-85
2023/12/04 05:52:36;;;;;;;29.80;16.40;;;;;;;-6.28;71.13;96530.63;4835693;29;20054;-83
2023/12/04 05:55:04;;;;;;;26.07;15.83;;;;;;;-6.32;71.10;96529.19;4860802;29;20081;-84
2023/12/04 05:57:32;;;;;;;24.23;14.93;;;;;;;-6.36;71.12;96525.16;4867564;23;20046;-86
2023/12/04 06:00:00;;;;;;;25.95;13.70;;;;;;;-6.36;71.11;96526.84;4868343;29;20082;-87
2023/12/04 06:02:30;;;;;;;26.00;14.52;;;;;;;-6.33;71.74;96521.63;4872106;29;20057;-88
2023/12/04 06:04:58;;;;;;;24.47;14.40;;;;;;;-6.31;71.85;96522.38;4871473;29;20045;-89
2023/12/04 06:07:26;;;;;;;31.20;15.90;;;;;;;-6.30;72.21;96522.28;4863286;29;20062;-87
2023/12/04 06:09:54;;;;;;;23.80;14.45;;;;;;;-6.27;72.66;96526.41;4851477;29;20501;-87
2023/12/04 06:12:22;;;;;;;26.30;14.20;;;;;;;-6.27;72.38;96529.75;4853133;29;20061;-88
2023/12/04 06:14:50;;;;;;;28.37;14.93;;;;;;;-6.31;72.17;96537.59;4851040;29;20088;-87
2023/12/04 06:17:18;;;;;;;27.77;15.27;;;;;;;-6.36;72.23;96535.31;4850513;29;20132;-89
2023/12/04 06:19:47;;;;;;;30.27;14.80;;;;;;;-6.42;71.84;96528.00;4850451;29;20592;-87
2023/12/04 06:22:18;;;;;;;26.37;14.73;;;;;;;-6.48;71.75;96528.31;4848944;29;20532;-88
2023/12/04 06:24:48;;;;;;;27.45;14.40;;;;;;;-6.51;72.57;96528.47;4848406;29;20089;-86
2023/12/04 06:27:19;;;;;;;27.77;15.02;;;;;;;-6.56;72.17;96517.72;4848266;29;20046;-90
2023/12/04 06:29:47;;;;;;;27.67;14.85;;;;;;;-6.61;72.34;96514.63;4849759;29;20466;-88
2023/12/04 06:32:19;;;;;;;28.67;15.98;;;;;;;-6.61;73.05;96509.53;4849462;29;20121;-87
2023/12/04 06:34:48;;;;;;;29.93;16.27;;;;;;;-6.62;72.50;96501.13;4849156;29;20358;-89
2023/12/04 06:37:16;;;;;;;30.83;16.93;;;;;;;-6.60;72.91;96503.56;4849855;29;20061;-88
2023/12/04 06:39:48;;;;;;;27.60;15.25;;;;;;;-6.58;73.35;96506.84;4849797;29;20057;-88
2023/12/04 06:42:17;;;;;;;28.63;15.60;;;;;;;-6.56;73.97;96505.03;4849775;29;20058;-84
2023/12/04 06:44:45;;;;;;;29.60;17.08;;;;;;;-6.51;74.07;96496.31;4850783;29;20145;-86
2023/12/04 06:47:16;;;;;;;25.00;14.50;;;;;;;-6.52;73.21;96484.50;4849965;29;20473;-88
2023/12/04 06:49:44;;;;;;;28.60;15.67;;;;;;;-6.48;73.29;96490.25;4850409;29;20630;-89
2023/12/04 06:52:12;;;;;;;29.83;16.07;;;;;;;-6.47;73.22;96489.34;4851010;29;20133;-89
2023/12/04 06:54:39;;;;;;;25.20;15.00;;;;;;;-6.48;72.46;96492.78;4849976;29;20058;-88
2023/12/04 06:57:08;;;;;;;28.48;16.45;;;;;;;-6.50;72.74;96484.44;4850923;29;20061;-88
2023/12/04 06:59:36;;;;;;;28.77;16.25;;;;;;;-6.45;72.67;96487.53;4850888;29;20145;-88
2023/12/04 07:02:05;;;;;;;26.65;15.20;;;;;;;-6.50;72.30;96484.44;4850975;29;20144;-86
2023/12/04 07:04:33;;;;;;;27.88;15.75;;;;;;;-6.55;72.99;96481.31;4851375;29;20600;-87
2023/12/04 07:07:04;;;;;;;27.90;16.03;;;;;;;-6.60;73.19;96485.81;4850367;29;20050;-89
2023/12/04 07:09:33;;;;;;;30.42;16.50;;;;;;;-6.65;73.66;96481.81;4849629;29;20436;-89
2023/12/04 07:12:02;;;;;;;26.70;14.85;;;;;;;-6.63;73.71;96474.91;4849513;29;20060;-87
2023/12/04 07:14:31;;;;;;;28.70;15.23;;;;;;;-6.66;73.10;96469.19;4849523;29;20531;-84
2023/12/04 07:17:00;;;;;;;30.00;15.30;;;;;;;-6.71;73.52;96461.81;4848613;29;20054;-88
2023/12/04 07:19:28;;;;;;;25.17;14.73;;;;;;;-6.71;73.91;96456.75;4849901;29;20512;-87
2023/12/04 07:21:56;;;;;;;29.83;17.25;;;;;;;-6.65;74.31;96456.44;4849223;29;20058;-86
2023/12/04 07:24:26;;;;;;;31.77;15.63;;;;;;;-6.59;74.50;96454.47;4849270;29;20118;-89
2023/12/04 07:26:54;;;;;;;27.37;15.47;;;;;;;-6.52;74.87;96456.59;4849178;29;20073;-87
2023/12/04 07:29:21;;;;;;;24.23;14.23;;;;;;;-6.55;73.56;96443.25;4850771;29;20133;-85
2023/12/04 07:31:50;;;;;;;30.80;16.20;;;;;;;-6.50;74.17;96443.84;4850511;29;20088;-88
2023/12/04 07:34:18;;;;;;;25.30;15.52;;;;;;;-6.48;73.47;96431.88;4849991;29;20082;-89
2023/12/04 07:36:46;;;;;;;26.17;14.83;;;;;;;-6.49;73.02;96430.25;4849094;29;20053;-87
2023/12/04 07:39:14;;;;;;;29.05;16.27;;;;;;;-6.53;72.29;96431.31;4849798;29;20050;-86
2023/12/04 07:41:42;;;;;;;24.03;15.23;;;;;;;-6.56;72.18;96424.69;4854588;29;20053;-87
2023/12/04 07:44:09;;;;;;;27.67;14.67;;;;;;;-6.61;72.05;96435.97;4860664;29;20118;-90
2023/12/04 07:46:37;;;;;;;27.50;17.03;;;;;;;-6.69;72.54;96437.19;4857987;29;20049;-88
2023/12/04 07:49:06;;;;;;;26.07;13.77;;;;;;;-6.73;71.94;96440.78;4851666;29;20169;-88
2023/12/04 07:51:34;;;;;;;26.17;15.23;;;;;;;-6.75;72.26;96434.16;4851952;29;20050;-89
2023/12/04 07:54:02;;;;;;;28.10;16.02;;;;;;;-6.77;72.81;96446.09;4851436;29;20083;-88
2023/12/04 07:56:31;;;;;;;30.43;14.97;;;;;;;-6.81;72.74;96440.34;4851559;29;20125;-89
2023/12/04 07:58:58;;;;;;;31.20;16.63;;;;;;;-6.86;72.74;96437.25;4851004;29;20153;-86
2023/12/04 08:01:26;;;;;;;26.73;15.38;;;;;;;-6.88;72.37;96449.19;4850740;29;20054;-88
2023/12/04 08:03:54;;;;;;;26.17;15.17;;;;;;;-6.90;72.48;96446.72;4843061;29;20049;-84
2023/12/04 08:06:24;;;;;;;27.80;16.00;;;;;;;-6.89;72.49;96447.53;4839176;29;20079;-85
2023/12/04 08:08:52;;;;;;;29.05;16.27;;;;;;;-6.84;72.67;96450.69;4844971;29;20130;-82
2023/12/04 08:11:20;;;;;;;27.53;15.57;;;;;;;-6.82;72.75;96453.94;4852894;29;20090;-82
2023/12/04 08:13:47;;;;;;;30.87;17.67;;;;;;;-6.79;72.67;96451.25;4843549;29;20057;-80
2023/12/04 08:16:15;;;;;;;30.23;17.17;;;;;;;-6.77;72.77;96458.78;4852507;29;20085;-85
2023/12/04 08:18:44;;;;;;;34.83;18.77;;;;;;;-6.77;72.93;96457.06;4851714;29;20042;-83
2023/12/04 08:21:12;;;;;;;33.70;17.50;;;;;;;-6.75;73.35;96451.91;4853606;29;20150;-83
2023/12/04 08:23:42;;;;;;;32.23;17.77;;;;;;;-6.73;72.77;96445.88;4833247;29;20054;-85
2023/12/04 08:26:09;;;;;;;29.47;16.87;;;;;;;-6.71;72.30;96440.69;4853836;29;20053;-83
2023/12/04 08:28:41;;;;;;;27.43;15.53;;;;;;;-6.68;72.34;96448.97;4854810;29;20054;-85
2023/12/04 08:31:09;;;;;;;38.63;17.47;;;;;;;-6.61;72.64;96452.00;4854449;29;20054;-85
2023/12/04 08:33:37;;;;;;;30.07;16.97;;;;;;;-6.60;72.18;96435.06;4855360;29;20073;-83
2023/12/04 08:36:06;;;;;;;31.83;17.57;;;;;;;-6.58;72.69;96443.41;4855101;29;20054;-82
2023/12/04 08:38:33;;;;;;;34.63;16.93;;;;;;;-6.51;73.05;96426.97;4852725;29;20493;-82
2023/12/04 08:41:03;;;;;;;30.93;16.87;;;;;;;-6.44;72.43;96424.03;4856234;29;20056;-83
2023/12/04 08:43:31;;;;;;;28.73;16.07;;;;;;;-6.42;72.34;96421.41;4856305;29;20057;-82
2023/12/04 08:46:00;;;;;;;31.40;17.42;;;;;;;-6.38;72.25;96417.81;4855397;29;20057;-84
2023/12/04 08:48:28;;;;;;;30.00;16.87;;;;;;;-6.36;72.19;96405.88;4856343;29;20053;-84
2023/12/04 08:50:56;;;;;;;32.95;18.17;;;;;;;-6.30;73.28;96407.22;4855432;29;20087;-84
2023/12/04 08:53:24;;;;;;;32.13;17.10;;;;;;;-6.26;73.15;96394.28;4854372;29;20589;-81
2023/12/04 08:55:52;;;;;;;30.20;16.33;;;;;;;-6.22;72.74;96389.88;4854887;29;20062;-83
2023/12/04 08:58:22;;;;;;;31.20;16.25;;;;;;;-6.19;72.18;96383.81;4854858;29;20531;-85
2023/12/04 09:00:50;;;;;;;31.45;15.50;;;;;;;-6.14;72.32;96386.91;4854066;29;20058;-84
2023/12/04 09:03:19;;;;;;;31.27;16.93;;;;;;;-6.10;72.32;96385.84;4855136;29;20066;-85
2023/12/04 09:05:58;;;;;;;26.20;14.85;;;;;;;-6.06;71.72;96382.22;4856080;29;20050;-82
2023/12/04 09:08:27;;;;;;;26.80;15.27;;;;;;;-6.04;71.64;96380.41;4856951;29;20054;-83
2023/12/04 09:11:06;;;;;;;29.27;16.93;;;;;;;-6.01;72.09;96380.28;4855489;29;20050;-88
2023/12/04 09:13:51;;;;;;;28.93;15.90;;;;;;;-5.99;71.66;96368.31;4856664;29;20053;-85
2023/12/04 09:16:19;;;;;;;30.23;15.00;;;;;;;-5.92;71.92;96369.56;4855422;29;20110;-82
2023/12/04 09:18:47;;;;;;;26.38;15.18;;;;;;;-5.88;71.71;96368.47;4849657;29;20070;-83
2023/12/04 09:21:15;;;;;;;22.60;12.93;;;;;;;-5.83;71.39;96343.63;4839485;29;20050;-82
2023/12/04 09:23:42;;;;;;;25.58;14.27;;;;;;;-5.76;71.71;96343.28;4839725;29;20061;-82
2023/12/04 09:26:11;;;;;;;26.60;14.95;;;;;;;-5.69;71.72;96344.56;4820558;29;20070;-82
2023/12/04 09:28:39;;;;;;;30.38;16.58;;;;;;;-5.66;71.25;96336.78;4820067;29;20055;-84
2023/12/04 09:31:09;;;;;;;26.10;14.88;;;;;;;-5.65;71.19;96325.69;4845173;29;20080;-81
2023/12/04 09:33:37;;;;;;;27.27;15.57;;;;;;;-5.63;71.26;96326.44;4844099;29;20475;-84
2023/12/04 09:36:05;;;;;;;26.58;15.02;;;;;;;-5.62;71.23;96321.25;4856346;29;20054;-84
2023/12/04 09:38:33;;;;;;;27.48;15.32;;;;;;;-5.57;71.47;96328.63;4855571;29;20050;-83
2023/12/04 09:41:02;;;;;;;24.70;14.30;;;;;;;-5.49;71.39;96330.69;4856134;29;20046;-86
2023/12/04 09:43:32;;;;;;;26.38;15.25;;;;;;;-5.46;71.23;96328.81;4856332;29;20065;-82
2023/12/04 09:46:01;;;;;;;26.70;14.75;;;;;;;-5.45;71.49;96338.06;4858163;29;20077;-84
2023/12/04 09:48:32;;;;;;;32.03;17.80;;;;;;;-5.41;71.81;96339.50;4854801;29;20082;-82
2023/12/04 09:51:01;;;;;;;28.77;16.35;;;;;;;-5.39;71.68;96326.72;4855720;29;20050;-82
2023/12/04 09:53:31;;;;;;;30.38;16.25;;;;;;;-5.41;71.40;96326.00;4854884;29;20086;-86
2023/12/04 09:56:03;;;;;;;28.40;15.60;;;;;;;-5.44;71.65;96349.88;4854740;29;20053;-83
2023/12/04 09:58:33;;;;;;;30.48;16.40;;;;;;;-5.42;71.85;96348.06;4856036;29;20064;-82
2023/12/04 10:01:02;;;;;;;29.20;15.93;;;;;;;-5.39;72.08;96342.78;4855204;29;20485;-83
2023/12/04 10:03:32;;;;;;;32.80;17.23;;;;;;;-5.32;71.97;96347.50;4852832;29;20079;-84
2023/12/04 10:06:01;;;;;;;35.90;16.38;;;;;;;-5.24;71.94;96358.06;4854491;29;20114;-82
2023/12/04 10:08:29;;;;;;;29.63;15.75;;;;;;;-5.20;71.62;96341.72;4853977;29;20054;-85
2023/12/04 10:10:58;;;;;;;33.17;17.88;;;;;;;-5.19;72.07;96339.06;4836520;29;20054;-82
2023/12/04 10:13:27;;;;;;;33.63;19.13;;;;;;;-5.15;72.60;96324.44;4828064;29;20088;-83
2023/12/04 10:16:15;;;;;;;31.25;17.80;;;;;;;-5.10;72.11;96316.53;4832528;29;20118;-82
2023/12/04 10:18:44;;;;;;;28.85;16.60;;;;;;;-5.12;71.74;96303.91;4832834;29;20515;-83
2023/12/04 10:21:13;;;;;;;27.00;15.23;;;;;;;-5.13;71.37;96302.28;4851133;29;20049;-83
2023/12/04 10:23:50;;;;;;;29.15;16.48;;;;;;;-5.15;71.30;96296.47;4838720;29;20064;-82
2023/12/04 10:26:17;;;;;;;27.70;15.48;;;;;;;-5.14;71.37;96292.19;4856240;29;20527;-83
2023/12/04 10:29:00;;;;;;;25.88;14.52;;;;;;;-5.12;71.34;96313.28;4833858;29;20050;-84
2023/12/04 10:31:27;;;;;;;21.90;12.80;;;;;;;-5.08;71.81;96318.06;4853454;29;20427;-82
2023/12/04 10:33:56;;;;;;;29.13;16.52;;;;;;;-5.03;72.34;96343.22;4854879;29;20057;-83
2023/12/04 10:36:24;;;;;;;31.25;16.30;;;;;;;-4.95;72.08;96319.88;4855921;29;20058;-82
2023/12/04 10:38:59;;;;;;;26.10;14.98;;;;;;;-4.91;71.74;96316.25;4855584;29;20064;-81
2023/12/04 10:41:27;;;;;;;32.53;18.73;;;;;;;-4.91;71.48;96294.16;4854155;29;20085;-84
2023/12/04 10:43:57;;;;;;;26.67;15.27;;;;;;;-4.89;71.84;96294.09;4855324;29;20082;-83
2023/12/04 10:46:38;;;;;;;25.55;15.23;;;;;;;-4.85;71.54;96290.44;4855756;29;20065;-83
2023/12/04 10:49:10;;;;;;;29.42;15.73;;;;;;;-4.80;72.22;96293.50;4855273;29;20082;-82
2023/12/04 10:51:39;;;;;;;27.35;14.95;;;;;;;-4.75;72.61;96278.75;4855863;29;20064;-82
2023/12/04 10:54:07;;;;;;;24.70;14.15;;;;;;;-4.72;72.21;96278.59;4855367;29;20081;-83
2023/12/04 10:56:38;;;;;;;24.33;14.43;;;;;;;-4.68;71.88;96277.50;4854814;29;20053;-83
2023/12/04 10:59:11;;;;;;;26.77;14.25;;;;;;;-4.66;71.27;96278.19;4849311;29;20531;-83
2023/12/04 11:01:43;;;;;;;27.88;15.13;;;;;;;-4.63;71.52;96272.09;4855633;29;20073;-84
2023/12/04 11:04:18;;;;;;;25.75;14.98;;;;;;;-4.62;71.74;96279.63;4854296;29;20124;-85
2023/12/04 11:06:50;;;;;;;25.13;14.35;;;;;;;-4.53;72.22;96269.78;4854295;29;20042;-82
2023/12/04 11:09:19;;;;;;;25.23;15.20;;;;;;;-4.41;72.55;96271.56;4854425;29;20050;-84
2023/12/04 11:11:51;;;;;;;29.23;16.27;;;;;;;-4.27;73.36;96276.56;4846429;29;20130;-83
2023/12/04 11:14:23;;;;;;;28.33;16.33;;;;;;;-4.12;72.36;96284.16;4835089;29;20058;-86
2023/12/04 11:16:58;;;;;;;29.65;16.23;;;;;;;-4.05;73.04;96280.28;4848214;29;20072;-83
2023/12/04 11:19:33;;;;;;;28.98;16.02;;;;;;;-3.95;72.08;96276.25;4850293;29;20109;-88
2023/12/04 11:22:03;;;;;;;30.55;17.05;;;;;;;-3.89;71.99;96273.28;4854550;29;20053;-84
2023/12/04 11:24:31;;;;;;;36.00;16.98;;;;;;;-3.82;71.97;96266.88;4854854;29;20126;-81